Time;durP1;ratioP1;P1;durP2;ratioP2;P2;SDS_P1;SDS_P2;PMS_P1;PMS_P2;Temp;Humidity;BMP_temperature;BMP_pressure;BME280_temperature;BME280_humidity;BME280_pressure;Samples;Min_cycle;Max_cycle;Signal;HPM_P1;HPM_P2
2021/06/11 00:01:09;;;;;;;6.18;3.10;;;;;;;28.27;38.17;101717.59;5054965;28;20331;-60
2021/06/11 00:03:35;;;;;;;6.07;2.90;;;;;;;28.24;38.84;101717.19;5036572;28;20025;-60
2021/06/11 00:06:00;;;;;;;4.35;3.28;;;;;;;28.19;38.24;101717.00;5053883;28;20024;-60
2021/06/11 00:08:28;;;;;;;6.90;4.10;;;;;;;28.13;39.02;101713.25;5054383;28;20044;-60
2021/06/11 00:10:53;;;;;;;6.50;3.47;;;;;;;28.06;38.95;101715.19;5054373;28;20096;-59
2021/06/11 00:13:19;;;;;;;4.30;2.63;;;;;;;27.98;38.47;101718.16;5054545;28;20442;-58
2021/06/11 00:15:44;;;;;;;6.63;3.33;;;;;;;27.89;38.82;101713.16;5036834;28;20024;-59
2021/06/11 00:18:10;;;;;;;4.97;3.20;;;;;;;27.85;39.21;101712.75;5053957;28;20024;-59
2021/06/11 00:20:36;;;;;;;5.10;3.13;;;;;;;27.77;38.71;101715.78;5054217;28;20056;-59
2021/06/11 00:23:01;;;;;;;4.30;3.40;;;;;;;27.71;38.75;101719.41;5054079;28;20027;-59
2021/06/11 00:25:26;;;;;;;4.05;3.25;;;;;;;27.62;39.29;101716.06;5036624;28;20032;-59
2021/06/11 00:27:54;;;;;;;7.60;3.42;;;;;;;27.60;39.47;101725.59;5054356;28;20090;-60
2021/06/11 00:30:21;;;;;;;8.45;3.15;;;;;;;27.52;39.19;101715.69;5037387;28;20453;-59
2021/06/11 00:32:46;;;;;;;4.40;3.55;;;;;;;27.44;39.51;101723.34;5054881;28;20493;-59
2021/06/11 00:35:12;;;;;;;5.20;3.88;;;;;;;27.35;39.50;101721.84;5053948;28;20057;-59
2021/06/11 00:37:37;;;;;;;5.85;3.58;;;;;;;27.27;39.90;101725.72;5054215;28;20032;-60
2021/06/11 00:40:08;;;;;;;7.00;4.07;;;;;;;27.18;39.99;101725.09;5053800;28;20060;-60
2021/06/11 00:42:33;;;;;;;8.25;3.25;;;;;;;27.13;39.83;101729.56;5053786;28;20113;-59
2021/06/11 00:45:00;;;;;;;4.20;3.28;;;;;;;27.10;39.97;101730.00;5036002;28;20517;-59
2021/06/11 00:47:25;;;;;;;4.68;3.65;;;;;;;27.04;40.45;101728.09;5053915;28;20032;-59
2021/06/11 00:49:51;;;;;;;6.32;4.00;;;;;;;27.01;40.50;101726.63;5054020;28;20187;-59
2021/06/11 00:52:16;;;;;;;5.93;3.97;;;;;;;26.98;40.38;101732.53;5032292;28;20053;-59
2021/06/11 00:54:42;;;;;;;6.53;3.72;;;;;;;26.97;40.74;101735.50;5034041;28;20033;-59
2021/06/11 00:57:07;;;;;;;6.70;3.45;;;;;;;26.94;40.80;101727.72;5033065;28;20104;-59
2021/06/11 00:59:33;;;;;;;5.85;3.80;;;;;;;26.90;40.69;101724.53;5033678;28;20026;-59
2021/06/11 01:01:58;;;;;;;5.70;3.20;;;;;;;26.88;40.37;101731.31;5033027;28;20040;-60
2021/06/11 01:04:24;;;;;;;5.72;4.45;;;;;;;26.83;40.43;101726.44;5033878;28;20481;-59
2021/06/11 01:06:50;;;;;;;6.03;3.75;;;;;;;26.85;40.84;101732.59;5033914;28;20087;-59
2021/06/11 01:09:15;;;;;;;6.55;3.92;;;;;;;26.84;41.35;101733.63;5033528;28;20045;-59
2021/06/11 01:11:43;;;;;;;10.23;4.05;;;;;;;26.82;41.27;101730.25;5032987;28;20083;-59
2021/06/11 01:14:09;;;;;;;10.50;3.83;;;;;;;26.81;40.88;101735.94;5032535;28;20022;-59
2021/06/11 01:16:35;;;;;;;6.43;3.78;;;;;;;26.80;41.74;101737.84;5032857;28;20052;-59
2021/06/11 01:19:01;;;;;;;5.97;2.83;;;;;;;26.81;41.55;101736.81;5033760;28;20112;-60
2021/06/11 01:21:30;;;;;;;8.23;3.47;;;;;;;26.81;41.50;101735.94;5032236;28;20104;-59
2021/06/11 01:24:08;;;;;;;6.55;3.55;;;;;;;26.83;41.60;101734.69;5032500;28;20028;-60
2021/06/11 01:26:37;;;;;;;5.05;3.50;;;;;;;26.83;40.84;101733.84;5032816;28;20033;-60
2021/06/11 01:29:24;;;;;;;6.18;3.67;;;;;;;26.84;41.74;101736.38;5032173;28;20040;-60
2021/06/11 01:31:53;;;;;;;5.13;4.25;;;;;;;26.82;41.66;101732.16;5037915;28;20029;-60
2021/06/11 01:34:19;;;;;;;6.93;3.30;;;;;;;26.81;41.46;101730.47;5037711;28;20037;-59
2021/06/11 01:36:46;;;;;;;5.50;3.88;;;;;;;26.80;41.90;101735.09;5038141;28;20057;-60
2021/06/11 01:39:15;;;;;;;4.25;3.63;;;;;;;26.80;41.73;101734.28;5037548;28;20052;-59
2021/06/11 01:41:41;;;;;;;4.80;3.38;;;;;;;26.80;41.94;101737.84;5037590;28;20041;-60
2021/06/11 01:44:08;;;;;;;4.63;3.78;;;;;;;26.79;41.70;101738.94;5036346;28;20405;-60
2021/06/11 01:46:34;;;;;;;5.88;3.72;;;;;;;26.79;41.62;101738.94;5036303;28;20017;-60
2021/06/11 01:49:00;;;;;;;5.47;3.28;;;;;;;26.75;41.67;101731.28;5036176;28;20528;-59
2021/06/11 01:51:26;;;;;;;3.95;3.53;;;;;;;26.75;42.08;101732.13;5035860;28;20401;-59
2021/06/11 01:53:52;;;;;;;5.93;3.95;;;;;;;26.70;42.25;101729.16;5036521;28;20044;-59
2021/06/11 01:56:19;;;;;;;4.60;3.38;;;;;;;26.62;42.17;101729.38;5036160;28;20037;-59
2021/06/11 01:58:44;;;;;;;3.67;3.28;;;;;;;26.60;42.29;101734.25;5036367;28;20504;-59
2021/06/11 02:01:12;;;;;;;5.68;3.90;;;;;;;26.53;42.00;101739.75;5036415;28;20025;-59
2021/06/11 02:03:39;;;;;;;5.13;4.07;;;;;;;26.45;42.33;101728.13;5035965;28;20104;-59
2021/06/11 02:06:05;;;;;;;5.57;3.88;;;;;;;26.40;42.41;101731.50;5035919;28;20350;-59
2021/06/11 02:08:31;;;;;;;6.30;3.53;;;;;;;26.36;42.49;101727.47;5036782;28;20025;-59
2021/06/11 02:10:57;;;;;;;5.88;3.50;;;;;;;26.33;41.87;101727.91;5035836;28;20435;-60
2021/06/11 02:13:23;;;;;;;4.05;3.00;;;;;;;26.29;42.68;101725.78;5035390;28;20520;-59
2021/06/11 02:15:49;;;;;;;3.92;3.20;;;;;;;26.27;42.31;101723.25;5036645;28;20155;-59
2021/06/11 02:18:14;;;;;;;5.18;3.70;;;;;;;26.22;42.52;101720.28;5035653;28;20453;-60
2021/06/11 02:20:40;;;;;;;9.75;3.90;;;;;;;26.19;42.66;101715.22;5035750;28;20096;-59
2021/06/11 02:23:06;;;;;;;11.20;3.45;;;;;;;26.20;42.57;101721.56;5035707;28;20036;-60
2021/06/11 02:25:31;;;;;;;5.53;3.83;;;;;;;26.18;42.66;101723.69;5037008;28;20025;-59
2021/06/11 02:27:57;;;;;;;5.07;3.17;;;;;;;26.12;42.87;101718.97;5035222;28;20087;-59
2021/06/11 02:30:24;;;;;;;6.00;3.00;;;;;;;26.10;42.58;101721.09;5035545;28;20033;-59
2021/06/11 02:32:49;;;;;;;4.57;3.70;;;;;;;26.03;42.47;101719.19;5035371;28;20025;-59
2021/06/11 02:35:20;;;;;;;6.68;4.07;;;;;;;25.98;43.22;101723.59;5051654;28;20030;-59
2021/06/11 02:37:46;;;;;;;5.93;4.00;;;;;;;25.91;43.33;101726.34;5036494;28;20466;-60
2021/06/11 02:40:12;;;;;;;4.07;3.45;;;;;;;25.84;42.86;101725.47;5035261;28;20458;-59
2021/06/11 02:42:38;;;;;;;9.77;3.75;;;;;;;25.78;43.08;101723.56;5036491;28;20025;-59
2021/06/11 02:45:08;;;;;;;7.25;3.65;;;;;;;25.71;43.23;101717.19;5036261;28;20367;-59
2021/06/11 02:47:42;;;;;;;5.35;3.50;;;;;;;25.65;43.44;101718.03;5036916;28;20038;-60
2021/06/11 02:50:11;;;;;;;4.50;3.45;;;;;;;25.60;43.13;101722.44;5035673;28;20104;-60
2021/06/11 02:52:41;;;;;;;4.20;3.38;;;;;;;25.52;43.41;101720.72;5038546;28;20025;-59
2021/06/11 02:55:07;;;;;;;4.45;2.83;;;;;;;25.49;43.45;101718.38;5056358;28;20526;-59
2021/06/11 02:57:39;;;;;;;4.32;3.08;;;;;;;25.46;43.27;101718.78;5056057;28;20389;-59
2021/06/11 03:00:09;;;;;;;8.70;3.30;;;;;;;25.42;43.21;101714.75;5038169;28;20112;-60
2021/06/11 03:02:49;;;;;;;4.72;3.40;;;;;;;25.38;43.65;101716.19;5037857;28;20040;-59
2021/06/11 03:05:17;;;;;;;8.48;3.33;;;;;;;25.33;43.13;101718.69;5054667;28;20516;-60
2021/06/11 03:07:45;;;;;;;5.20;3.55;;;;;;;25.29;43.70;101725.66;5054911;28;20033;-59
2021/06/11 03:10:11;;;;;;;4.22;3.28;;;;;;;25.25;43.86;101714.25;5037961;28;20063;-59
2021/06/11 03:12:38;;;;;;;5.43;3.55;;;;;;;25.21;43.70;101709.38;5055590;28;20377;-60
2021/06/11 03:15:05;;;;;;;6.43;3.38;;;;;;;25.15;43.66;101710.19;5054478;28;20029;-59
2021/06/11 03:17:32;;;;;;;4.85;3.22;;;;;;;25.12;43.84;101711.44;5054615;28;20033;-60
2021/06/11 03:20:02;;;;;;;4.97;3.35;;;;;;;25.07;44.35;101711.19;5037529;28;20029;-59
2021/06/11 03:22:42;;;;;;;4.05;3.10;;;;;;;25.04;44.13;101708.03;5055470;28;20021;-59
2021/06/11 03:25:11;;;;;;;7.35;4.15;;;;;;;25.00;44.13;101712.19;5054325;28;20028;-59
2021/06/11 03:27:43;;;;;;;5.45;3.30;;;;;;;24.98;43.49;101708.81;5037442;28;20044;-59
2021/06/11 03:30:11;;;;;;;7.47;3.28;;;;;;;24.94;44.49;101704.78;5054319;28;20108;-59
2021/06/11 03:32:46;;;;;;;5.25;3.22;;;;;;;24.92;44.45;101701.41;5020666;28;20029;-59
2021/06/11 03:35:21;;;;;;;3.20;2.67;;;;;;;24.88;43.86;101710.03;5055633;28;20124;-59
2021/06/11 03:37:49;;;;;;;7.47;3.10;;;;;;;24.85;44.51;101709.56;5055050;28;20028;-60
2021/06/11 03:40:18;;;;;;;6.07;3.55;;;;;;;24.82;44.50;101708.09;5055014;28;20029;-59
2021/06/11 03:42:44;;;;;;;4.82;3.33;;;;;;;24.81;44.24;101702.81;5053739;28;20105;-59
2021/06/11 03:45:10;;;;;;;9.23;3.00;;;;;;;24.79;44.46;101705.75;5055708;28;20033;-59
2021/06/11 03:47:36;;;;;;;4.43;3.13;;;;;;;24.77;44.01;101707.81;5055033;28;20029;-59
2021/06/11 03:50:03;;;;;;;6.07;3.15;;;;;;;24.73;44.44;101706.53;5055432;28;20024;-59
2021/06/11 03:52:31;;;;;;;5.55;3.28;;;;;;;24.74;44.65;101710.94;5053476;28;20044;-59
2021/06/11 03:55:04;;;;;;;4.38;3.40;;;;;;;24.73;44.74;101712.00;5036936;28;20029;-59
2021/06/11 03:57:30;;;;;;;9.30;4.75;;;;;;;24.72;45.20;101710.31;5037455;28;20020;-59
2021/06/11 03:59:57;;;;;;;6.20;3.42;;;;;;;24.70;44.34;101712.41;5037453;28;20033;-59
2021/06/11 04:02:22;;;;;;;4.55;3.60;;;;;;;24.69;44.78;101704.38;5054569;28;20031;-59
2021/06/11 04:04:48;;;;;;;4.30;3.30;;;;;;;24.70;44.82;101712.41;5054538;28;20033;-59
2021/06/11 04:07:24;;;;;;;6.03;3.60;;;;;;;24.71;45.37;101713.22;5054770;28;20040;-59
2021/06/11 04:09:53;;;;;;;4.60;3.42;;;;;;;24.70;45.38;101704.19;5053236;28;20024;-59
2021/06/11 04:12:27;;;;;;;6.75;3.05;;;;;;;24.71;44.42;101708.59;5036552;28;20424;-59
2021/06/11 04:14:54;;;;;;;8.32;3.38;;;;;;;24.72;44.75;101707.56;5036513;28;20028;-59
2021/06/11 04:17:23;;;;;;;6.32;3.78;;;;;;;24.72;44.87;101702.09;5054815;28;20020;-59
2021/06/11 04:19:54;;;;;;;5.05;3.38;;;;;;;24.78;44.88;101697.69;5054236;28;20036;-59
2021/06/11 04:22:23;;;;;;;5.25;3.42;;;;;;;24.80;44.53;101691.00;5053535;28;20024;-59
2021/06/11 04:24:49;;;;;;;6.80;3.45;;;;;;;24.88;45.52;101696.31;5036240;28;20025;-59
2021/06/11 04:27:17;;;;;;;5.43;3.47;;;;;;;24.93;44.80;101686.66;5036629;28;20048;-59
2021/06/11 04:29:45;;;;;;;4.45;3.40;;;;;;;25.00;44.97;101682.03;5054600;28;20539;-60
2021/06/11 04:32:11;;;;;;;7.60;3.88;;;;;;;25.02;44.89;101679.94;5054276;28;20457;-59
2021/06/11 04:34:36;;;;;;;5.85;3.58;;;;;;;25.12;45.06;101680.44;5036021;28;20032;-59
2021/06/11 04:37:02;;;;;;;4.68;3.47;;;;;;;25.19;44.65;101684.88;5054190;28;20029;-58
2021/06/11 04:39:27;;;;;;;7.82;3.95;;;;;;;25.31;44.99;101679.66;5055006;28;20063;-59
2021/06/11 04:41:52;;;;;;;8.77;4.63;;;;;;;25.40;45.00;101675.69;5054078;28;20093;-59
2021/06/11 04:44:18;;;;;;;5.60;3.72;;;;;;;25.50;45.69;101680.81;5054056;28;20484;-59
2021/06/11 04:46:43;;;;;;;11.13;4.47;;;;;;;25.61;44.63;101666.50;5054451;28;20037;-60
2021/06/11 04:49:09;;;;;;;7.93;4.65;;;;;;;25.70;44.94;101662.50;5054106;28;20045;-59
2021/06/11 04:51:35;;;;;;;8.45;5.68;;;;;;;25.85;45.22;101664.00;5053748;28;20045;-59
2021/06/11 04:54:01;;;;;;;8.30;4.63;;;;;;;25.97;44.60;101662.34;5054127;28;20025;-59
2021/06/11 04:56:27;;;;;;;9.88;5.60;;;;;;;26.11;44.68;101662.34;5053824;28;20032;-58
2021/06/11 04:58:54;;;;;;;8.77;5.22;;;;;;;26.25;44.94;101664.91;5035662;28;20033;-59
2021/06/11 05:01:20;;;;;;;7.35;4.68;;;;;;;26.38;44.39;101658.59;5053808;28;20474;-59
2021/06/11 05:03:46;;;;;;;7.40;4.07;;;;;;;26.57;44.50;101665.97;5053585;28;20024;-59
2021/06/11 05:06:11;;;;;;;8.73;4.85;;;;;;;26.71;44.03;101675.88;5054212;28;20052;-59
2021/06/11 05:08:36;;;;;;;10.95;4.72;;;;;;;26.84;44.19;101673.13;5053742;28;20461;-59
2021/06/11 05:11:03;;;;;;;10.27;5.07;;;;;;;26.96;43.58;101674.16;5053312;28;20094;-60
2021/06/11 05:13:29;;;;;;;8.82;4.90;;;;;;;27.10;44.04;101681.31;5053658;28;20052;-59
2021/06/11 05:15:54;;;;;;;7.05;4.30;;;;;;;27.23;44.10;101679.56;5053502;28;20100;-60
2021/06/11 05:18:19;;;;;;;10.75;4.68;;;;;;;27.36;43.89;101679.53;5053494;28;20040;-59
2021/06/11 05:20:45;;;;;;;6.85;4.70;;;;;;;27.48;43.84;101669.53;5053324;28;20159;-60
2021/06/11 05:23:10;;;;;;;5.75;4.15;;;;;;;27.60;42.82;101676.88;5053384;28;20350;-60
2021/06/11 05:25:37;;;;;;;9.50;5.35;;;;;;;27.71;43.52;101667.06;5053356;28;20385;-59
2021/06/11 05:28:03;;;;;;;10.38;4.95;;;;;;;27.82;43.67;101671.88;5053151;28;20021;-60
2021/06/11 05:30:28;;;;;;;10.90;4.85;;;;;;;27.95;43.75;101679.19;5052879;28;20051;-59
2021/06/11 05:32:54;;;;;;;6.80;4.43;;;;;;;28.09;42.72;101681.66;5035157;28;20025;-58
2021/06/11 05:35:21;;;;;;;6.00;4.22;;;;;;;28.22;43.24;101686.25;5053319;28;20029;-59
2021/06/11 05:37:46;;;;;;;10.48;5.28;;;;;;;28.35;42.98;101677.84;5052124;28;20071;-59
2021/06/11 05:40:12;;;;;;;6.45;4.55;;;;;;;28.49;42.50;101678.59;5053283;28;20432;-60
2021/06/11 05:42:38;;;;;;;11.23;4.40;;;;;;;28.62;42.20;101681.19;5053526;28;20021;-59
2021/06/11 05:45:04;;;;;;;10.10;4.50;;;;;;;28.72;41.84;101679.66;5035200;28;20507;-59
2021/06/11 05:47:30;;;;;;;8.70;5.55;;;;;;;28.83;42.33;101686.34;5053063;28;20048;-59
2021/06/11 05:49:55;;;;;;;7.53;4.25;;;;;;;28.95;41.59;101684.50;5053301;28;20024;-59
2021/06/11 05:52:21;;;;;;;8.00;4.30;;;;;;;29.09;42.00;101688.78;5050512;28;20045;-53
2021/06/11 05:54:46;;;;;;;9.57;4.53;;;;;;;29.20;41.23;101693.53;5052117;28;20036;-54
2021/06/11 05:57:12;;;;;;;9.50;5.32;;;;;;;29.26;42.30;101683.53;5053142;28;20646;-53
2021/06/11 05:59:37;;;;;;;8.52;4.38;;;;;;;29.47;41.07;101699.63;5052729;28;20063;-54
2021/06/11 06:02:03;;;;;;;7.45;4.20;;;;;;;29.59;41.98;101691.41;5053108;28;20427;-53
2021/06/11 06:04:29;;;;;;;8.32;4.18;;;;;;;29.76;41.29;101689.66;5053027;28;20029;-53
2021/06/11 06:06:57;;;;;;;6.65;4.05;;;;;;;29.90;41.31;101691.19;5034746;28;20115;-54
2021/06/11 06:09:22;;;;;;;8.75;4.60;;;;;;;30.04;40.61;101687.13;5053051;28;20116;-54
2021/06/11 06:11:48;;;;;;;7.55;3.80;;;;;;;30.16;41.09;101679.72;5052478;28;20111;-53
2021/06/11 06:14:13;;;;;;;6.50;3.65;;;;;;;30.29;40.19;101690.53;5034602;28;20040;-59
2021/06/11 06:16:38;;;;;;;7.07;4.07;;;;;;;30.47;40.26;101690.50;5055474;28;20021;-59
2021/06/11 06:19:04;;;;;;;6.88;4.50;;;;;;;30.63;40.25;101697.22;5056598;28;20039;-60
2021/06/11 06:21:31;;;;;;;6.65;4.38;;;;;;;30.74;39.92;101688.06;5056386;28;20040;-59
2021/06/11 06:23:57;;;;;;;6.65;3.88;;;;;;;30.91;39.75;101699.25;5055687;28;20510;-59
2021/06/11 06:26:23;;;;;;;5.00;3.97;;;;;;;31.05;39.38;101700.72;5056007;28;20046;-60
2021/06/11 06:28:48;;;;;;;4.35;3.58;;;;;;;31.20;39.33;101702.97;5056452;28;20461;-59
2021/06/11 06:31:13;;;;;;;12.98;3.65;;;;;;;31.35;38.99;101711.63;5056409;28;20035;-60
2021/06/11 06:33:39;;;;;;;4.35;3.17;;;;;;;31.51;39.09;101711.72;5056162;28;20116;-59
2021/06/11 06:36:06;;;;;;;4.13;2.60;;;;;;;31.67;38.86;101710.94;5055355;28;20354;-59
2021/06/11 06:38:32;;;;;;;6.43;3.30;;;;;;;31.85;38.38;101717.38;5055273;28;20032;-61
2021/06/11 06:41:00;;;;;;;9.52;3.70;;;;;;;32.02;38.63;101713.56;5055237;28;20032;-60
2021/06/11 06:43:25;;;;;;;7.45;2.72;;;;;;;32.16;38.18;101708.56;5056106;28;20059;-60
2021/06/11 06:45:51;;;;;;;9.73;3.28;;;;;;;32.33;38.02;101703.84;5055108;28;20024;-60
2021/06/11 06:48:16;;;;;;;6.43;2.67;;;;;;;32.46;37.12;101703.53;5038131;28;20032;-61
2021/06/11 06:50:42;;;;;;;2.85;2.22;;;;;;;32.62;37.74;101708.25;5055275;28;20053;-60
2021/06/11 06:53:08;;;;;;;4.75;2.45;;;;;;;32.76;36.77;101698.47;5055787;28;20029;-60
2021/06/11 06:55:34;;;;;;;3.58;2.55;;;;;;;32.92;37.09;101705.09;5060304;28;20052;-59
2021/06/11 06:57:59;;;;;;;5.65;2.50;;;;;;;33.10;36.80;101701.22;5036077;28;20026;-60
2021/06/11 07:00:25;;;;;;;4.00;1.80;;;;;;;33.25;36.11;101707.00;5035323;28;20064;-60
2021/06/11 07:02:50;;;;;;;2.42;1.42;;;;;;;33.39;36.72;101706.31;5035181;28;20427;-60
2021/06/11 07:05:16;;;;;;;4.03;1.80;;;;;;;33.56;35.90;101713.75;5036099;28;20087;-60
2021/06/11 07:07:41;;;;;;;3.20;1.33;;;;;;;33.70;35.82;101707.53;5045257;28;20029;-60
2021/06/11 07:10:07;;;;;;;4.53;2.00;;;;;;;33.86;35.35;101701.06;5035899;28;20112;-61
2021/06/11 07:12:33;;;;;;;1.73;1.25;;;;;;;34.00;34.42;101703.41;5035530;28;20057;-61
2021/06/11 07:14:58;;;;;;;3.80;1.67;;;;;;;34.08;34.39;101695.47;5036217;28;20079;-60
2021/06/11 07:17:25;;;;;;;3.47;1.73;;;;;;;34.20;34.88;101698.09;5035626;28;20025;-61
2021/06/11 07:19:52;;;;;;;3.88;1.92;;;;;;;34.34;34.07;101705.69;5036103;28;20040;-60
2021/06/11 07:22:18;;;;;;;7.40;1.85;;;;;;;34.43;34.15;101697.69;5034567;28;20017;-60
2021/06/11 07:24:43;;;;;;;2.70;1.35;;;;;;;34.63;34.41;101700.69;5035832;28;20036;-60
2021/06/11 07:27:09;;;;;;;4.75;1.55;;;;;;;34.80;34.83;101693.00;5035923;28;20030;-59
2021/06/11 07:29:40;;;;;;;2.30;1.30;;;;;;;34.95;33.47;101712.56;5035511;28;20159;-59
2021/06/11 07:32:07;;;;;;;4.30;1.80;;;;;;;35.08;34.12;101705.72;5034711;28;20112;-59
2021/06/11 07:34:32;;;;;;;6.20;2.33;;;;;;;35.18;33.92;101707.75;5035517;28;20040;-60
2021/06/11 07:36:58;;;;;;;4.63;2.17;;;;;;;35.31;33.83;101715.59;5035102;28;20033;-60
2021/06/11 07:39:23;;;;;;;4.85;2.53;;;;;;;35.36;32.75;101719.25;5035376;28;20466;-59
2021/06/11 07:41:49;;;;;;;5.70;2.25;;;;;;;35.47;32.94;101714.53;5035466;28;20029;-59
2021/06/11 07:44:15;;;;;;;4.78;2.35;;;;;;;35.60;33.16;101726.06;5035015;28;20033;-60
2021/06/11 07:46:40;;;;;;;4.57;2.05;;;;;;;35.74;33.17;101718.00;5034212;28;20072;-60
2021/06/11 07:49:05;;;;;;;3.00;1.88;;;;;;;35.89;33.16;101717.22;5034865;28;20525;-60
2021/06/11 07:51:31;;;;;;;3.85;1.73;;;;;;;36.00;32.71;101719.75;5044608;28;20071;-60
2021/06/11 07:53:56;;;;;;;4.13;2.20;;;;;;;36.09;32.43;101723.69;5053488;28;20117;-61
2021/06/11 07:56:22;;;;;;;3.60;1.80;;;;;;;36.21;32.32;101721.47;5054691;28;20358;-60
2021/06/11 07:58:47;;;;;;;5.15;2.10;;;;;;;36.34;32.24;101724.81;5054365;28;20051;-60
2021/06/11 08:01:12;;;;;;;3.25;1.83;;;;;;;36.46;31.98;101722.59;5055169;28;20037;-60
2021/06/11 08:03:38;;;;;;;4.97;1.77;;;;;;;36.56;31.82;101722.63;5054580;28;20021;-60
2021/06/11 08:06:03;;;;;;;4.25;2.33;;;;;;;36.69;31.83;101727.63;5054795;28;20428;-60
2021/06/11 08:08:29;;;;;;;5.22;2.63;;;;;;;36.78;31.64;101725.94;5054710;28;20128;-60
2021/06/11 08:10:54;;;;;;;5.10;2.63;;;;;;;36.88;31.46;101720.31;5054727;28;20381;-60
2021/06/11 08:13:20;;;;;;;3.33;1.73;;;;;;;36.96;31.37;101710.53;5054607;28;20037;-60
2021/06/11 08:15:46;;;;;;;3.58;2.00;;;;;;;37.09;31.37;101718.34;5054912;28;20112;-60
2021/06/11 08:18:11;;;;;;;2.90;2.03;;;;;;;37.07;31.11;101720.59;5054348;28;20055;-60
2021/06/11 08:20:36;;;;;;;4.32;2.03;;;;;;;36.99;31.35;101727.63;5054692;28;20029;-61
2021/06/11 08:23:02;;;;;;;3.30;2.08;;;;;;;37.21;31.15;101719.72;5054964;28;20515;-59
2021/06/11 08:25:27;;;;;;;7.38;3.05;;;;;;;37.42;30.93;101725.22;5054466;28;20028;-60
2021/06/11 08:27:56;;;;;;;5.15;2.25;;;;;;;37.56;30.92;101720.72;5036483;28;20142;-60
2021/06/11 08:30:22;;;;;;;4.53;2.40;;;;;;;37.72;30.90;101723.13;5054285;28;20028;-60
2021/06/11 08:32:48;;;;;;;2.45;2.10;;;;;;;37.97;30.89;101719.38;5054018;28;20025;-60
2021/06/11 08:35:14;;;;;;;4.20;2.17;;;;;;;38.10;30.40;101729.94;5054096;28;20036;-60
2021/06/11 08:37:39;;;;;;;4.35;2.38;;;;;;;38.45;29.69;101729.66;5054379;28;20029;-60
2021/06/11 08:40:05;;;;;;;7.18;2.70;;;;;;;38.10;30.75;101727.13;5053478;28;20056;-60
2021/06/11 08:42:31;;;;;;;3.60;2.25;;;;;;;37.75;31.17;101724.50;5036040;28;20029;-60
2021/06/11 08:45:05;;;;;;;5.35;2.72;;;;;;;37.44;30.80;101734.22;5054054;28;20079;-61
2021/06/11 08:47:31;;;;;;;8.50;3.13;;;;;;;37.10;30.92;101729.28;5053327;28;20037;-60
2021/06/11 08:49:57;;;;;;;6.78;2.92;;;;;;;36.79;31.39;101719.25;5053632;28;20017;-60
2021/06/11 08:52:24;;;;;;;5.07;3.05;;;;;;;36.86;31.05;101736.53;5049025;28;20040;-61
2021/06/11 08:54:49;;;;;;;7.78;2.42;;;;;;;36.95;30.81;101740.44;5051792;28;20045;-60
2021/06/11 08:57:15;;;;;;;10.07;2.80;;;;;;;36.83;31.21;101739.91;5033923;28;20029;-62
2021/06/11 08:59:40;;;;;;;7.78;2.80;;;;;;;36.74;31.27;101730.44;5033771;28;20033;-60
2021/06/11 09:02:06;;;;;;;10.75;2.85;;;;;;;36.69;31.29;101733.22;5034465;28;20112;-60
2021/06/11 09:04:58;;;;;;;7.35;3.08;;;;;;;36.86;30.78;101728.16;5033610;28;20053;-60
2021/06/11 09:07:32;;;;;;;7.00;2.42;;;;;;;37.41;30.67;101723.56;5031738;28;20493;-61
2021/06/11 09:10:04;;;;;;;4.30;3.17;;;;;;;37.80;30.26;101732.91;5033479;28;20037;-61
2021/06/11 09:12:33;;;;;;;;;;;;;;;37.35;30.64;101728.34;5034466;28;20043;-60
2021/06/11 09:15:19;;;;;;;5.68;2.63;;;;;;;37.80;30.48;101721.72;5033829;28;19967;-61
2021/06/11 09:17:46;;;;;;;5.40;3.08;;;;;;;38.16;29.85;101725.97;5031850;28;20460;-60
2021/06/11 09:20:16;;;;;;;6.82;3.03;;;;;;;38.44;29.86;101725.19;5033612;28;20049;-61
2021/06/11 09:22:52;;;;;;;4.72;3.05;;;;;;;38.69;28.90;101724.13;5033721;28;20025;-60
2021/06/11 09:25:25;;;;;;;10.25;3.70;;;;;;;38.97;28.71;101722.47;5033719;28;20466;-61
2021/06/11 09:28:12;;;;;;;4.25;2.75;;;;;;;38.89;29.03;101721.13;5033194;28;20076;-60
2021/06/11 09:30:37;;;;;;;5.90;3.10;;;;;;;38.69;29.66;101724.13;5033387;28;20092;-61
2021/06/11 09:33:05;;;;;;;8.38;2.95;;;;;;;38.36;29.34;101720.22;5033572;28;20030;-62
2021/06/11 09:35:33;;;;;;;6.28;2.65;;;;;;;38.68;29.11;101724.41;5033694;28;20033;-60
2021/06/11 09:38:12;;;;;;;4.32;3.20;;;;;;;39.07;29.21;101713.94;5033626;28;20428;-60
2021/06/11 09:40:38;;;;;;;7.55;3.80;;;;;;;39.17;28.71;101727.00;5033262;28;20021;-60
2021/06/11 09:43:03;;;;;;;5.68;3.60;;;;;;;38.56;29.04;101724.81;5032373;28;20030;-58
2021/06/11 09:45:29;;;;;;;4.07;3.15;;;;;;;38.17;29.63;101719.22;5033144;28;20029;-59
2021/06/11 09:47:54;;;;;;;4.78;2.95;;;;;;;38.82;29.13;101725.44;5032753;28;20032;-58
2021/06/11 09:50:20;;;;;;;6.07;3.30;;;;;;;38.97;29.29;101714.06;5032738;28;20521;-58
2021/06/11 09:52:51;;;;;;;5.97;3.50;;;;;;;38.63;29.03;101713.25;5053003;28;20075;-61
2021/06/11 09:56:00;;;;;;;8.25;3.50;;;;;;;38.15;30.06;101718.69;5055885;28;20040;-61
2021/06/11 09:58:28;;;;;;;7.38;3.63;;;;;;;37.70;30.00;101721.75;5056956;28;20385;-61
2021/06/11 10:00:58;;;;;;;5.40;3.05;;;;;;;37.38;30.07;101721.34;5039377;28;20511;-61
2021/06/11 10:03:29;;;;;;;6.60;3.70;;;;;;;37.61;29.44;101717.88;5039007;28;20128;-61
2021/06/11 10:05:57;;;;;;;7.93;4.13;;;;;;;37.36;30.20;101715.19;5055969;28;20461;-60
2021/06/11 10:08:24;;;;;;;5.28;3.58;;;;;;;37.14;29.48;101719.19;5057243;28;20021;-61
2021/06/11 10:10:51;;;;;;;6.53;3.50;;;;;;;36.89;30.25;101715.56;5056869;28;20486;-61
2021/06/11 10:13:18;;;;;;;6.15;3.05;;;;;;;36.72;30.43;101721.47;5056677;28;20025;-60
2021/06/11 10:15:45;;;;;;;7.80;3.88;;;;;;;36.49;30.57;101711.69;5056891;28;20032;-61
2021/06/11 10:18:11;;;;;;;8.68;4.60;;;;;;;37.40;29.84;101705.09;5055921;28;20033;-60
2021/06/11 10:20:37;;;;;;;5.18;3.83;;;;;;;38.21;28.72;101705.47;5056378;28;20040;-60
2021/06/11 10:23:07;;;;;;;8.05;4.85;;;;;;;38.69;28.15;101695.28;5039590;28;20029;-61
2021/06/11 10:25:33;;;;;;;4.55;3.75;;;;;;;39.00;28.22;101696.66;5056711;28;20036;-60
2021/06/11 10:28:00;;;;;;;5.22;3.90;;;;;;;39.34;27.33;101702.16;5056700;28;20053;-60
2021/06/11 10:30:27;;;;;;;5.28;3.47;;;;;;;39.72;27.53;101694.63;5055491;28;20052;-60
2021/06/11 10:32:53;;;;;;;4.53;3.50;;;;;;;40.14;26.84;101700.19;5056462;28;20115;-58
2021/06/11 10:35:38;;;;;;;3.47;3.00;;;;;;;40.63;27.30;101699.63;5038426;28;20473;-58
2021/06/11 10:38:04;;;;;;;3.67;3.22;;;;;;;41.03;26.90;101690.44;5055138;28;20055;-58
2021/06/11 10:40:39;;;;;;;5.95;5.10;;;;;;;41.45;26.06;101683.66;5055691;28;20033;-59
2021/06/11 10:43:26;;;;;;;6.13;3.55;;;;;;;41.33;26.40;101686.16;5056324;28;20119;-58
2021/06/11 10:45:55;;;;;;;4.60;3.33;;;;;;;41.86;25.84;101685.53;5038204;28;20033;-58
2021/06/11 10:48:22;;;;;;;4.40;2.60;;;;;;;41.83;26.05;101687.00;5056083;28;20105;-58
2021/06/11 10:50:47;;;;;;;3.88;2.42;;;;;;;41.50;25.86;101680.72;5056190;28;20120;-58
2021/06/11 10:53:32;;;;;;;4.38;3.97;;;;;;;41.85;25.50;101681.09;5053493;28;20052;-59
2021/06/11 10:56:12;;;;;;;2.92;2.47;;;;;;;42.46;25.00;101681.22;5055764;28;20044;-58
2021/06/11 10:58:37;;;;;;;4.95;2.90;;;;;;;42.85;24.93;101683.28;5055740;28;20116;-58
2021/06/11 11:01:21;;;;;;;2.67;2.00;;;;;;;42.09;25.34;101681.59;5055787;28;20056;-58
2021/06/11 11:03:47;;;;;;;3.10;1.98;;;;;;;41.61;25.52;101672.88;5055964;28;20051;-59
2021/06/11 11:06:30;;;;;;;8.80;2.97;;;;;;;41.91;25.02;101672.16;5055984;28;20029;-58
2021/06/11 11:08:58;;;;;;;4.38;1.95;;;;;;;42.07;25.19;101676.31;5056152;28;20021;-59
2021/06/11 11:11:29;;;;;;;3.65;1.90;;;;;;;42.40;24.75;101678.84;5055999;28;20029;-58
2021/06/11 11:13:55;;;;;;;5.97;2.85;;;;;;;42.66;24.54;101677.88;5055734;28;20025;-59
2021/06/11 11:16:22;;;;;;;3.28;2.25;;;;;;;42.30;24.83;101674.31;5034683;28;20040;-58
2021/06/11 11:18:48;;;;;;;4.28;1.90;;;;;;;42.01;25.20;101665.47;5035825;28;20100;-57
2021/06/11 11:21:28;;;;;;;4.75;2.47;;;;;;;41.21;25.41;101666.13;5035689;28;20112;-58
2021/06/11 11:24:07;;;;;;;4.57;2.40;;;;;;;40.86;25.56;101676.13;5035617;28;20461;-59
2021/06/11 11:26:49;;;;;;;2.20;1.42;;;;;;;41.57;24.88;101674.66;5040447;28;20036;-59